Time;durP1;ratioP1;P1;durP2;ratioP2;P2;SDS_P1;SDS_P2;PMS_P1;PMS_P2;Temp;Humidity;BMP_temperature;BMP_pressure;BME280_temperature;BME280_humidity;BME280_pressure;Samples;Min_cycle;Max_cycle;Signal;HPM_P1;HPM_P2
2022/08/02 00:01:23;;;;;;;;;;;23.80;77.60;;;;;;5055431;28;20370;-61
2022/08/02 00:03:48;;;;;;;;;;;23.90;77.90;;;;;;5055800;28;20400;-61
2022/08/02 00:06:14;;;;;;;;;;;23.60;77.70;;;;;;5055108;28;19925;-61
2022/08/02 00:08:39;;;;;;;;;;;23.60;77.60;;;;;;5055492;28;20023;-62
2022/08/02 00:11:05;;;;;;;;;;;23.80;77.80;;;;;;5073125;28;20384;-61
2022/08/02 00:13:31;;;;;;;;;;;23.60;77.50;;;;;;5075334;28;19925;-61
2022/08/02 00:15:56;;;;;;;;;;;23.50;77.50;;;;;;5058245;28;19924;-61
2022/08/02 00:18:22;;;;;;;;;;;23.50;77.40;;;;;;5067307;28;19932;-62
2022/08/02 00:20:47;;;;;;;;;;;23.90;77.70;;;;;;5062570;28;20011;-67
2022/08/02 00:23:13;;;;;;;;;;;23.70;77.50;;;;;;5055607;28;19929;-61
2022/08/02 00:25:39;;;;;;;;;;;23.90;77.70;;;;;;5054732;28;20361;-61
2022/08/02 00:28:04;;;;;;;;;;;23.80;77.70;;;;;;5058202;28;20427;-62
2022/08/02 00:30:30;;;;;;;;;;;23.50;77.60;;;;;;5070504;28;19932;-61
2022/08/02 00:32:55;;;;;;;;;;;23.70;77.60;;;;;;5065210;28;20472;-62
2022/08/02 00:35:21;;;;;;;;;;;23.80;78.30;;;;;;5060186;28;19925;-61
2022/08/02 00:37:47;;;;;;;;;;;23.50;77.40;;;;;;5075104;28;19930;-61
2022/08/02 00:40:12;;;;;;;;;;;23.50;77.50;;;;;;5058635;28;19947;-61
2022/08/02 00:42:38;;;;;;;;;;;23.80;77.60;;;;;;5064683;28;19928;-61
2022/08/02 00:45:04;;;;;;;;;;;23.70;77.60;;;;;;5072723;28;19925;-61
2022/08/02 00:47:30;;;;;;;;;;;23.50;77.10;;;;;;5055238;28;19935;-62
2022/08/02 00:49:55;;;;;;;;;;;23.80;77.70;;;;;;5074853;28;19931;-61
2022/08/02 00:52:21;;;;;;;;;;;23.60;78.00;;;;;;5070493;28;20519;-62
2022/08/02 00:54:47;;;;;;;;;;;23.30;77.40;;;;;;5054513;28;19924;-62
2022/08/02 00:57:13;;;;;;;;;;;23.60;77.30;;;;;;5035795;28;19970;-62
2022/08/02 00:59:38;;;;;;;;;;;23.70;77.40;;;;;;5054684;28;19925;-62
2022/08/02 01:02:04;;;;;;;;;;;23.60;77.20;;;;;;5054935;28;19925;-62
2022/08/02 01:04:29;;;;;;;;;;;23.60;77.50;;;;;;5058847;28;19999;-61
2022/08/02 01:06:55;;;;;;;;;;;23.40;77.20;;;;;;5074232;28;20013;-61
2022/08/02 01:09:20;;;;;;;;;;;23.70;77.50;;;;;;5073034;28;19925;-62
2022/08/02 01:11:46;;;;;;;;;;;23.40;77.20;;;;;;5072973;28;20026;-61
2022/08/02 01:14:12;;;;;;;;;;;23.40;77.10;;;;;;5062119;28;19994;-61
2022/08/02 01:16:58;;;;;;;;;;;23.30;77.10;;;;;;5054384;28;19921;-61
2022/08/02 01:19:23;;;;;;;;;;;23.60;77.60;;;;;;5053617;28;20424;-61
2022/08/02 01:21:55;;;;;;;;;;;23.50;77.40;;;;;;5055504;28;19932;-61
2022/08/02 01:24:41;;;;;;;;;;;23.60;76.20;;;;;;5069781;28;19924;-61
2022/08/02 01:27:07;;;;;;;;;;;23.70;76.30;;;;;;5058908;28;19931;-61
2022/08/02 01:29:33;;;;;;;;;;;23.40;77.20;;;;;;5071608;28;19925;-62
2022/08/02 01:32:08;;;;;;;;;;;23.50;77.50;;;;;;5061473;28;19924;-61
2022/08/02 01:34:51;;;;;;;;;;;23.40;77.50;;;;;;5063673;28;20012;-61
2022/08/02 01:37:19;;;;;;;;;;;23.30;76.00;;;;;;5052594;28;19924;-60
2022/08/02 01:39:45;;;;;;;;;;;23.40;76.10;;;;;;5071866;28;19925;-62
2022/08/02 01:42:11;;;;;;;;;;;23.70;77.70;;;;;;5039237;28;19920;-61
2022/08/02 01:44:37;;;;;;;;;;;23.40;77.20;;;;;;5071986;28;19977;-62
2022/08/02 01:47:04;;;;;;;;;;;23.60;77.60;;;;;;5061591;28;20384;-61
2022/08/02 01:49:30;;;;;;;;;;;23.30;77.40;;;;;;5072516;28;19998;-62
2022/08/02 01:54:39;;;;;;;;;;;23.40;76.30;;;;;;5060889;28;19928;-62
2022/08/02 01:57:05;;;;;;;;;;;23.30;77.30;;;;;;5061551;28;19979;-61
2022/08/02 01:59:31;;;;;;;;;;;23.50;77.00;;;;;;5061969;28;19931;-62
2022/08/02 02:01:56;;;;;;;;;;;23.40;77.30;;;;;;5035302;28;20019;-61
2022/08/02 02:04:22;;;;;;;;;;;23.60;77.20;;;;;;5052847;28;19932;-61
2022/08/02 02:06:48;;;;;;;;;;;23.20;76.70;;;;;;5055550;28;19924;-61
2022/08/02 02:09:13;;;;;;;;;;;23.40;77.20;;;;;;5074655;28;19974;-61
2022/08/02 02:11:39;;;;;;;;;;;23.40;77.20;;;;;;5076488;28;19932;-61
2022/08/02 02:14:05;;;;;;;;;;;23.20;77.30;;;;;;5073341;28;19936;-61
2022/08/02 02:16:31;;;;;;;;;;;23.40;77.20;;;;;;5056145;28;20302;-62
2022/08/02 02:18:56;;;;;;;;;;;23.20;77.20;;;;;;5071155;28;19925;-61
2022/08/02 02:21:22;;;;;;;;;;;23.10;77.00;;;;;;5074981;28;19932;-61
2022/08/02 02:23:47;;;;;;;;;;;23.30;77.20;;;;;;5074778;28;19920;-61
2022/08/02 02:26:13;;;;;;;;;;;23.10;76.90;;;;;;5061476;28;20263;-61
2022/08/02 02:28:39;;;;;;;;;;;23.40;77.50;;;;;;5051404;28;19924;-62
2022/08/02 02:31:12;;;;;;;;;;;23.20;77.00;;;;;;5056333;28;19925;-61
2022/08/02 02:33:48;;;;;;;;;;;23.00;75.70;;;;;;5056997;28;19976;-61
2022/08/02 02:36:15;;;;;;;;;;;23.30;75.90;;;;;;5057004;28;20437;-61
2022/08/02 02:38:40;;;;;;;;;;;23.40;77.30;;;;;;5066311;28;19928;-61
2022/08/02 02:41:06;;;;;;;;;;;23.00;76.80;;;;;;5056123;28;20297;-61
2022/08/02 02:43:32;;;;;;;;;;;23.10;77.00;;;;;;5054691;28;19928;-62
2022/08/02 02:45:57;;;;;;;;;;;23.30;77.30;;;;;;5056087;28;19964;-61
2022/08/02 02:48:24;;;;;;;;;;;23.00;77.00;;;;;;5056802;28;19995;-61
2022/08/02 02:50:49;;;;;;;;;;;23.20;77.30;;;;;;5072638;28;19924;-61
2022/08/02 02:53:15;;;;;;;;;;;23.00;76.90;;;;;;5059135;28;19925;-61
2022/08/02 02:55:41;;;;;;;;;;;23.00;77.10;;;;;;5048404;28;19932;-61
2022/08/02 02:58:07;;;;;;;;;;;23.20;77.00;;;;;;5066092;28;20294;-62
2022/08/02 03:03:17;;;;;;;;;;;23.20;76.00;;;;;;5065562;28;20386;-61
2022/08/02 03:05:42;;;;;;;;;;;23.10;76.80;;;;;;5076023;28;20011;-61
2022/08/02 03:08:08;;;;;;;;;;;23.10;76.90;;;;;;5051462;28;19932;-61
2022/08/02 03:10:34;;;;;;;;;;;23.20;76.90;;;;;;5056368;28;20011;-61
2022/08/02 03:12:59;;;;;;;;;;;23.00;76.90;;;;;;5064933;28;20528;-61
2022/08/02 03:15:28;;;;;;;;;;;23.10;76.70;;;;;;5066334;28;19931;-61
2022/08/02 03:17:53;;;;;;;;;;;23.10;75.70;;;;;;5075482;28;19925;-61
2022/08/02 03:20:19;;;;;;;;;;;23.00;76.80;;;;;;5072165;28;20401;-62
2022/08/02 03:22:45;;;;;;;;;;;22.80;76.70;;;;;;5058274;28;19925;-61
2022/08/02 03:25:11;;;;;;;;;;;22.90;76.70;;;;;;5055380;28;19932;-61
2022/08/02 03:27:36;;;;;;;;;;;23.00;77.10;;;;;;5058490;28;20335;-61
2022/08/02 03:30:03;;;;;;;;;;;23.20;76.70;;;;;;5058201;28;19925;-61
2022/08/02 03:32:28;;;;;;;;;;;23.20;77.00;;;;;;5063652;28;20015;-61
2022/08/02 03:34:54;;;;;;;;;;;23.00;76.90;;;;;;5074066;28;20015;-61
2022/08/02 03:37:20;;;;;;;;;;;23.10;76.70;;;;;;5074114;28;20344;-61
2022/08/02 03:39:45;;;;;;;;;;;23.20;77.00;;;;;;5059424;28;20377;-63
2022/08/02 03:42:11;;;;;;;;;;;23.20;76.80;;;;;;5057452;28;19932;-61
2022/08/02 03:44:38;;;;;;;;;;;23.10;76.90;;;;;;5073917;28;19954;-62
2022/08/02 03:47:04;;;;;;;;;;;23.30;77.00;;;;;;5072524;28;20062;-61
2022/08/02 03:49:30;;;;;;;;;;;23.10;76.90;;;;;;5073396;28;20358;-62
2022/08/02 03:51:56;;;;;;;;;;;23.10;77.10;;;;;;5048350;28;19925;-62
2022/08/02 03:54:22;;;;;;;;;;;23.00;76.80;;;;;;5036873;28;19924;-61
2022/08/02 03:56:47;;;;;;;;;;;23.00;76.70;;;;;;5053664;28;20382;-62
2022/08/02 03:59:13;;;;;;;;;;;22.90;76.80;;;;;;5066318;28;20278;-62
2022/08/02 04:01:38;;;;;;;;;;;23.30;76.90;;;;;;5073571;28;19924;-62
2022/08/02 04:04:04;;;;;;;;;;;22.90;76.90;;;;;;5065084;28;19933;-62
2022/08/02 04:06:30;;;;;;;;;;;23.00;76.80;;;;;;5053111;28;19928;-62
2022/08/02 04:08:56;;;;;;;;;;;22.90;76.90;;;;;;4990577;28;1838794;-61
2022/08/02 04:11:30;;;;;;;;;;;22.90;76.50;;;;;;5055469;28;20438;-62
2022/08/02 04:14:06;;;;;;;;;;;22.70;75.70;;;;;;5047279;28;19925;-61
2022/08/02 04:16:51;;;;;;;;;;;23.30;75.90;;;;;;5055204;28;20277;-61
2022/08/02 04:19:35;;;;;;;;;;;24.20;76.40;;;;;;5062980;28;19939;-61
2022/08/02 04:22:03;;;;;;;;;;;22.90;75.70;;;;;;5065466;28;19931;-61
2022/08/02 04:24:32;;;;;;;;;;;22.80;77.10;;;;;;5070257;28;19925;-62
2022/08/02 04:26:58;;;;;;;;;;;22.90;77.10;;;;;;5057305;28;20386;-61
2022/08/02 04:29:24;;;;;;;;;;;22.70;76.90;;;;;;5059541;28;19924;-61
2022/08/02 04:31:49;;;;;;;;;;;22.90;76.90;;;;;;5061662;28;19975;-61
2022/08/02 04:34:15;;;;;;;;;;;22.90;77.00;;;;;;5050230;28;19960;-61
2022/08/02 04:36:40;;;;;;;;;;;23.00;77.00;;;;;;5057289;28;19928;-60
2022/08/02 04:39:06;;;;;;;;;;;23.00;77.00;;;;;;5071728;28;19925;-61
2022/08/02 04:41:35;;;;;;;;;;;23.10;76.90;;;;;;5074893;28;20370;-61
2022/08/02 04:44:01;;;;;;;;;;;22.90;75.70;;;;;;5074962;28;19960;-61
2022/08/02 04:46:27;;;;;;;;;;;23.20;76.80;;;;;;5066960;28;19983;-60
2022/08/02 04:48:52;;;;;;;;;;;23.20;76.90;;;;;;5057022;28;19924;-61
2022/08/02 04:51:18;;;;;;;;;;;23.10;76.80;;;;;;5039600;28;20400;-61
2022/08/02 04:53:43;;;;;;;;;;;23.50;76.80;;;;;;5072487;28;20019;-60
2022/08/02 04:56:10;;;;;;;;;;;23.50;76.70;;;;;;5057244;28;19928;-61
2022/08/02 04:58:35;;;;;;;;;;;23.20;76.70;;;;;;5054396;28;20007;-60
2022/08/02 05:01:01;;;;;;;;;;;23.30;76.70;;;;;;5057170;28;20012;-60
2022/08/02 05:03:27;;;;;;;;;;;23.00;76.40;;;;;;5069488;28;19925;-60
2022/08/02 05:05:52;;;;;;;;;;;23.10;76.60;;;;;;5069592;28;20378;-60
2022/08/02 05:08:18;;;;;;;;;;;23.00;76.30;;;;;;5064048;28;19974;-60
2022/08/02 05:10:43;;;;;;;;;;;23.30;76.50;;;;;;5058672;28;20015;-61
2022/08/02 05:13:09;;;;;;;;;;;23.50;76.30;;;;;;5071955;28;19990;-63
2022/08/02 05:15:35;;;;;;;;;;;23.70;76.50;;;;;;5072908;28;19931;-62
2022/08/02 05:18:00;;;;;;;;;;;23.70;76.30;;;;;;5064753;28;20306;-60
2022/08/02 05:20:26;;;;;;;;;;;24.00;76.10;;;;;;5054371;28;20019;-60
2022/08/02 05:22:52;;;;;;;;;;;23.90;75.60;;;;;;5054246;28;19924;-60
2022/08/02 05:25:17;;;;;;;;;;;24.00;75.50;;;;;;5054078;28;20279;-61
2022/08/02 05:27:43;;;;;;;;;;;24.10;75.20;;;;;;5053712;28;20015;-60
2022/08/02 05:30:09;;;;;;;;;;;24.10;75.10;;;;;;5053822;28;20274;-63
2022/08/02 05:32:41;;;;;;;;;;;24.20;74.60;;;;;;5057952;28;19979;-61
2022/08/02 05:35:07;;;;;;;;;;;24.50;75.00;;;;;;5058253;28;19932;-61
2022/08/02 05:37:32;;;;;;;;;;;24.30;74.30;;;;;;5067715;28;19933;-61
2022/08/02 05:39:58;;;;;;;;;;;24.70;74.50;;;;;;5069156;28;20015;-61
2022/08/02 05:42:24;;;;;;;;;;;24.50;74.10;;;;;;5060396;28;19931;-60
2022/08/02 05:44:49;;;;;;;;;;;24.60;73.90;;;;;;5070171;28;20019;-61
2022/08/02 05:47:15;;;;;;;;;;;24.70;73.80;;;;;;5057782;28;19991;-60
2022/08/02 05:49:41;;;;;;;;;;;24.90;73.80;;;;;;5054777;28;19929;-60
2022/08/02 05:52:16;;;;;;;;;;;24.80;73.60;;;;;;5053845;28;19932;-61
2022/08/02 05:54:46;;;;;;;;;;;25.00;72.40;;;;;;5073039;28;19924;-60
2022/08/02 05:57:16;;;;;;;;;;;25.00;73.70;;;;;;5066686;28;19927;-61
2022/08/02 05:59:52;;;;;;;;;;;25.10;73.60;;;;;;5070947;28;19939;-60
2022/08/02 06:02:24;;;;;;;;;;;25.10;72.10;;;;;;5071048;28;20334;-61
2022/08/02 06:04:52;;;;;;;;;;;25.30;72.10;;;;;;5063144;28;20017;-61
2022/08/02 06:07:19;;;;;;;;;;;25.20;73.40;;;;;;5073019;28;19998;-61
2022/08/02 06:09:44;;;;;;;;;;;25.40;73.30;;;;;;5046687;28;19925;-60
2022/08/02 06:12:10;;;;;;;;;;;25.50;73.20;;;;;;5055458;28;20277;-61
2022/08/02 06:14:36;;;;;;;;;;;25.60;73.20;;;;;;5053360;28;19929;-61
2022/08/02 06:17:05;;;;;;;;;;;25.50;73.00;;;;;;5035369;28;19924;-61
2022/08/02 06:19:31;;;;;;;;;;;25.70;72.00;;;;;;5058841;28;19920;-62
2022/08/02 06:22:13;;;;;;;;;;;25.90;73.60;;;;;;5065271;28;19931;-61
2022/08/02 06:24:45;;;;;;;;;;;25.60;73.00;;;;;;5052807;28;20370;-63
2022/08/02 06:27:12;;;;;;;;;;;25.90;72.10;;;;;;5036908;28;19929;-61
2022/08/02 06:29:38;;;;;;;;;;;26.10;73.60;;;;;;5068031;28;19935;-61
2022/08/02 06:32:05;;;;;;;;;;;25.80;73.50;;;;;;5064838;28;20382;-61
2022/08/02 06:34:35;;;;;;;;;;;25.70;72.50;;;;;;5055693;28;19949;-61
2022/08/02 06:37:05;;;;;;;;;;;25.90;73.20;;;;;;5054916;28;19924;-66
2022/08/02 06:39:31;;;;;;;;;;;26.10;73.30;;;;;;5064441;28;20374;-61
2022/08/02 06:41:57;;;;;;;;;;;25.90;73.10;;;;;;5052569;28;20020;-65
2022/08/02 06:44:23;;;;;;;;;;;26.00;73.20;;;;;;5054479;28;20337;-62
2022/08/02 06:46:48;;;;;;;;;;;26.10;72.90;;;;;;5050402;28;19928;-62
2022/08/02 06:49:14;;;;;;;;;;;26.40;73.10;;;;;;5071760;28;19970;-63
2022/08/02 06:51:40;;;;;;;;;;;26.10;72.90;;;;;;5069716;28;19931;-62
2022/08/02 06:54:05;;;;;;;;;;;26.40;73.10;;;;;;5063942;28;19924;-62
2022/08/02 06:56:31;;;;;;;;;;;26.30;73.00;;;;;;5079234;28;19924;-61
2022/08/02 06:58:57;;;;;;;;;;;26.20;73.10;;;;;;5080309;28;20382;-61
2022/08/02 07:01:22;;;;;;;;;;;26.50;73.20;;;;;;5063058;28;19937;-62
2022/08/02 07:03:48;;;;;;;;;;;26.30;72.70;;;;;;5076914;28;19931;-62
2022/08/02 07:06:14;;;;;;;;;;;26.40;73.20;;;;;;5075770;28;19947;-62
2022/08/02 07:08:39;;;;;;;;;;;26.20;72.50;;;;;;5055300;28;20377;-63
2022/08/02 07:11:05;;;;;;;;;;;26.40;72.90;;;;;;5070897;28;19933;-61
2022/08/02 07:13:31;;;;;;;;;;;26.10;72.70;;;;;;5082819;28;19924;-63
2022/08/02 07:15:56;;;;;;;;;;;26.30;72.70;;;;;;5094920;28;19987;-63
2022/08/02 07:18:22;;;;;;;;;;;26.10;72.50;;;;;;5096892;28;20327;-60
2022/08/02 07:20:48;;;;;;;;;;;26.20;72.90;;;;;;5093459;28;20366;-66
2022/08/02 07:23:14;;;;;;;;;;;26.10;72.30;;;;;;5071138;28;20453;-62
2022/08/02 07:25:40;;;;;;;;;;;26.10;72.80;;;;;;5083783;28;19932;-62
2022/08/02 07:28:05;;;;;;;;;;;26.40;72.80;;;;;;5076226;28;20370;-62
2022/08/02 07:30:31;;;;;;;;;;;26.20;72.70;;;;;;5071820;28;19932;-62
2022/08/02 07:32:58;;;;;;;;;;;26.50;73.00;;;;;;5086172;28;19924;-63
2022/08/02 07:35:23;;;;;;;;;;;26.10;72.60;;;;;;5056335;28;19972;-62
2022/08/02 07:37:49;;;;;;;;;;;26.50;72.60;;;;;;5090014;28;19971;-62
2022/08/02 07:40:15;;;;;;;;;;;26.30;72.60;;;;;;5096537;28;20457;-66
2022/08/02 07:42:41;;;;;;;;;;;26.40;72.50;;;;;;5090585;28;19999;-65
2022/08/02 07:45:06;;;;;;;;;;;26.40;72.60;;;;;;5063684;28;20290;-66
2022/08/02 07:47:35;;;;;;;;;;;26.30;72.10;;;;;;5084836;28;19924;-66
2022/08/02 07:50:01;;;;;;;;;;;26.40;72.80;;;;;;5096332;28;19988;-66
2022/08/02 07:52:26;;;;;;;;;;;26.30;72.90;;;;;;5061818;28;19963;-66
2022/08/02 07:54:52;;;;;;;;;;;26.50;72.60;;;;;;5071013;28;20409;-66
2022/08/02 07:57:19;;;;;;;;;;;26.50;72.50;;;;;;5070975;28;20016;-61
2022/08/02 07:59:46;;;;;;;;;;;26.60;72.80;;;;;;5075592;28;19924;-62
2022/08/02 08:02:13;;;;;;;;;;;26.70;72.70;;;;;;5071209;28;19925;-62
2022/08/02 08:04:39;;;;;;;;;;;26.50;72.60;;;;;;5057180;28;19977;-66
2022/08/02 08:07:08;;;;;;;;;;;26.40;72.40;;;;;;5070712;28;19925;-62
2022/08/02 08:09:38;;;;;;;;;;;26.60;72.40;;;;;;5072235;28;19948;-62
2022/08/02 08:12:04;;;;;;;;;;;26.60;71.90;;;;;;5062401;28;20315;-66
2022/08/02 08:14:30;;;;;;;;;;;26.90;72.00;;;;;;5074999;28;20389;-66
2022/08/02 08:16:56;;;;;;;;;;;26.80;72.10;;;;;;5072043;28;19964;-64
2022/08/02 08:19:21;;;;;;;;;;;26.60;72.10;;;;;;5058017;28;20379;-63
2022/08/02 08:21:47;;;;;;;;;;;26.60;71.70;;;;;;5059029;28;19959;-63
2022/08/02 08:24:13;;;;;;;;;;;26.60;71.80;;;;;;5075357;28;19925;-62
2022/08/02 08:26:38;;;;;;;;;;;26.90;71.80;;;;;;5057446;28;19924;-61
2022/08/02 08:29:05;;;;;;;;;;;26.80;71.90;;;;;;5057144;28;19925;-61
2022/08/02 08:31:32;;;;;;;;;;;26.80;71.50;;;;;;5064827;28;20377;-63
2022/08/02 08:34:03;;;;;;;;;;;26.80;71.80;;;;;;5075173;28;19924;-62
2022/08/02 08:36:28;;;;;;;;;;;27.00;70.30;;;;;;5058278;28;19925;-63
2022/08/02 08:38:54;;;;;;;;;;;27.10;71.50;;;;;;5062849;28;19924;-62
2022/08/02 08:41:19;;;;;;;;;;;26.90;71.30;;;;;;5072967;28;20011;-64
2022/08/02 08:43:45;;;;;;;;;;;26.80;70.90;;;;;;5074911;28;19958;-63
2022/08/02 08:46:15;;;;;;;;;;;26.80;70.90;;;;;;5056745;28;19925;-62
2022/08/02 08:48:43;;;;;;;;;;;26.80;70.90;;;;;;5071465;28;19932;-61
2022/08/02 08:51:15;;;;;;;;;;;27.00;70.90;;;;;;5037016;28;19963;-62
2022/08/02 08:53:43;;;;;;;;;;;26.90;69.40;;;;;;5053686;28;19986;-66
2022/08/02 08:56:12;;;;;;;;;;;26.80;69.50;;;;;;5068668;28;20011;-66
2022/08/02 08:58:38;;;;;;;;;;;26.70;68.80;;;;;;5071235;28;20038;-67
2022/08/02 09:01:03;;;;;;;;;;;27.20;69.70;;;;;;5055490;28;20004;-67
2022/08/02 09:03:29;;;;;;;;;;;26.90;68.20;;;;;;5063165;28;19928;-66
2022/08/02 09:05:56;;;;;;;;;;;26.80;69.10;;;;;;5074206;28;20023;-65
2022/08/02 09:08:22;;;;;;;;;;;26.90;69.10;;;;;;5073753;28;19931;-66
2022/08/02 09:10:48;;;;;;;;;;;26.70;68.50;;;;;;5064261;28;19925;-65
2022/08/02 09:13:19;;;;;;;;;;;26.50;68.40;;;;;;5054906;28;19947;-65
2022/08/02 09:15:45;;;;;;;;;;;26.60;67.50;;;;;;5074519;28;20300;-66
2022/08/02 09:18:11;;;;;;;;;;;26.40;68.90;;;;;;5073748;28;19968;-66
2022/08/02 09:20:58;;;;;;;;;;;26.30;68.70;;;;;;5064738;28;19951;-62
2022/08/02 09:23:25;;;;;;;;;;;26.50;68.00;;;;;;5048092;28;19925;-62
2022/08/02 09:25:55;;;;;;;;;;;26.40;69.00;;;;;;5066501;28;20435;-62
2022/08/02 09:28:24;;;;;;;;;;;26.70;68.00;;;;;;5053958;28;19939;-63
2022/08/02 09:30:49;;;;;;;;;;;26.50;69.50;;;;;;5054004;28;19932;-62
2022/08/02 09:33:23;;;;;;;;;;;26.40;69.00;;;;;;5052494;28;20405;-68
2022/08/02 09:35:49;;;;;;;;;;;26.40;68.60;;;;;;5054229;28;19932;-62
2022/08/02 09:38:14;;;;;;;;;;;26.20;67.90;;;;;;5019969;28;19925;-62
2022/08/02 09:40:40;;;;;;;;;;;26.20;68.10;;;;;;5062046;28;20389;-65
2022/08/02 09:43:06;;;;;;;;;;;26.10;67.90;;;;;;5068224;28;20382;-62
2022/08/02 09:45:35;;;;;;;;;;;26.40;68.30;;;;;;5054867;28;19972;-62
2022/08/02 09:48:01;;;;;;;;;;;26.60;67.20;;;;;;5054006;28;19928;-62
2022/08/02 09:50:27;;;;;;;;;;;26.50;67.40;;;;;;5036161;28;19980;-61
2022/08/02 09:52:56;;;;;;;;;;;26.50;67.40;;;;;;5053851;28;19980;-61
2022/08/02 09:55:22;;;;;;;;;;;26.40;65.40;;;;;;5053923;28;20328;-61
2022/08/02 09:57:48;;;;;;;;;;;26.30;66.90;;;;;;5052105;28;19921;-61
2022/08/02 10:00:14;;;;;;;;;;;26.60;66.90;;;;;;5054353;28;20302;-62
2022/08/02 10:02:42;;;;;;;;;;;26.40;66.40;;;;;;5059523;28;19999;-62
2022/08/02 10:05:09;;;;;;;;;;;26.40;66.90;;;;;;5073842;28;19929;-62
2022/08/02 10:07:34;;;;;;;;;;;26.40;66.60;;;;;;5066297;28;19932;-62
2022/08/02 10:10:00;;;;;;;;;;;26.30;66.40;;;;;;5053358;28;19925;-62
2022/08/02 10:12:26;;;;;;;;;;;26.70;66.70;;;;;;5062057;28;19924;-62
2022/08/02 10:14:51;;;;;;;;;;;26.40;66.90;;;;;;5073644;28;19995;-62
2022/08/02 10:17:17;;;;;;;;;;;26.30;66.50;;;;;;5072904;28;19924;-61
2022/08/02 10:19:44;;;;;;;;;;;26.20;67.20;;;;;;5055508;28;19932;-61
2022/08/02 10:22:11;;;;;;;;;;;26.20;67.40;;;;;;5053664;28;20294;-62
2022/08/02 10:24:38;;;;;;;;;;;26.10;67.50;;;;;;5053618;28;20302;-62
2022/08/02 10:27:03;;;;;;;;;;;26.20;67.50;;;;;;5053112;28;19925;-62
2022/08/02 10:29:30;;;;;;;;;;;26.10;67.70;;;;;;5052958;28;19929;-64
2022/08/02 10:32:09;;;;;;;;;;;26.00;68.10;;;;;;5057150;28;19924;-64
2022/08/02 10:34:35;;;;;;;;;;;26.10;66.60;;;;;;5065288;28;19932;-62
2022/08/02 10:37:05;;;;;;;;;;;26.40;68.60;;;;;;5077386;28;19931;-65
2022/08/02 10:39:40;;;;;;;;;;;26.50;68.60;;;;;;5061958;28;19924;-67
2022/08/02 10:42:06;;;;;;;;;;;26.60;67.00;;;;;;5076393;28;19924;-63
2022/08/02 10:44:31;;;;;;;;;;;26.50;68.20;;;;;;5076976;28;19925;-64
2022/08/02 10:47:17;;;;;;;;;;;26.40;68.20;;;;;;5077291;28;20015;-62
2022/08/02 10:49:49;;;;;;;;;;;26.40;67.40;;;;;;5074421;28;20432;-62
2022/08/02 10:52:15;;;;;;;;;;;26.20;67.50;;;;;;5069381;28;19970;-62
2022/08/02 10:54:42;;;;;;;;;;;26.60;69.20;;;;;;5077109;28;19928;-64
2022/08/02 10:57:14;;;;;;;;;;;26.60;69.30;;;;;;5054798;28;20000;-62
2022/08/02 10:59:40;;;;;;;;;;;26.40;67.80;;;;;;5068184;28;19924;-63
2022/08/02 11:02:05;;;;;;;;;;;26.60;69.10;;;;;;5057278;28;19978;-62
2022/08/02 11:04:52;;;;;;;;;;;26.60;69.60;;;;;;5056742;28;20271;-62
2022/08/02 11:07:18;;;;;;;;;;;26.80;70.00;;;;;;5057909;28;20302;-63
2022/08/02 11:09:44;;;;;;;;;;;26.60;70.00;;;;;;5075313;28;19924;-62
2022/08/02 11:12:11;;;;;;;;;;;26.50;69.90;;;;;;5061250;28;19928;-63
2022/08/02 11:14:38;;;;;;;;;;;26.70;70.00;;;;;;5067358;28;19932;-62
2022/08/02 11:17:11;;;;;;;;;;;26.70;70.20;;;;;;5069263;28;20290;-62
2022/08/02 11:19:55;;;;;;;;;;;26.70;68.80;;;;;;5056638;28;19931;-62
2022/08/02 11:22:21;;;;;;;;;;;26.90;69.20;;;;;;5056595;28;20325;-64
2022/08/02 11:24:47;;;;;;;;;;;27.00;70.40;;;;;;5041855;28;19925;-61
2022/08/02 11:27:16;;;;;;;;;;;26.70;70.30;;;;;;5074609;28;19966;-61
2022/08/02 11:29:42;;;;;;;;;;;26.90;69.10;;;;;;5076128;28;20377;-62
2022/08/02 11:32:15;;;;;;;;;;;27.00;70.80;;;;;;5076388;28;20010;-66
2022/08/02 11:34:41;;;;;;;;;;;27.10;71.00;;;;;;5054646;28;19935;-63
2022/08/02 11:37:06;;;;;;;;;;;27.00;71.40;;;;;;5076072;28;19931;-63
2022/08/02 11:39:32;;;;;;;;;;;27.20;70.50;;;;;;5074173;28;19925;-65
2022/08/02 11:41:58;;;;;;;;;;;27.10;70.60;;;;;;5070284;28;20302;-63
2022/08/02 11:44:24;;;;;;;;;;;27.10;70.30;;;;;;5075421;28;19924;-62
2022/08/02 11:46:59;;;;;;;;;;;27.10;70.70;;;;;;5054644;28;19928;-62
2022/08/02 11:49:25;;;;;;;;;;;27.00;69.30;;;;;;5075896;28;19924;-62
2022/08/02 11:52:03;;;;;;;;;;;27.00;70.70;;;;;;5068721;28;19925;-67
2022/08/02 11:54:30;;;;;;;;;;;27.20;71.00;;;;;;5062413;28;19987;-63
2022/08/02 11:57:08;;;;;;;;;;;27.50;71.40;;;;;;5052556;28;19947;-63
2022/08/02 11:59:36;;;;;;;;;;;27.30;69.70;;;;;;5068743;28;19971;-63
2022/08/02 12:02:03;;;;;;;;;;;27.30;71.20;;;;;;5056839;28;19928;-63
2022/08/02 12:04:28;;;;;;;;;;;27.20;71.10;;;;;;5075583;28;19931;-62
2022/08/02 12:06:55;;;;;;;;;;;27.30;70.70;;;;;;5072534;28;19968;-62
2022/08/02 12:09:21;;;;;;;;;;;27.50;71.40;;;;;;5074913;28;19964;-62
2022/08/02 12:11:50;;;;;;;;;;;27.20;71.10;;;;;;5057352;28;19948;-63
2022/08/02 12:14:15;;;;;;;;;;;27.30;70.00;;;;;;5037614;28;19925;-63
2022/08/02 12:19:26;;;;;;;;;;;27.50;70.40;;;;;;5055570;28;19925;-62
2022/08/02 12:22:12;;;;;;;;;;;27.40;71.60;;;;;;5049762;28;19970;-62
2022/08/02 12:24:38;;;;;;;;;;;27.50;71.80;;;;;;5017062;28;19925;-62
2022/08/02 12:27:04;;;;;;;;;;;27.40;71.90;;;;;;5032069;28;19925;-63
2022/08/02 12:29:30;;;;;;;;;;;27.60;72.00;;;;;;5033093;28;19995;-62
2022/08/02 12:31:56;;;;;;;;;;;27.70;72.40;;;;;;5031741;28;19947;-62
2022/08/02 12:34:23;;;;;;;;;;;27.50;72.20;;;;;;5032939;28;19940;-62
2022/08/02 12:37:03;;;;;;;;;;;27.50;71.50;;;;;;5016910;28;20028;-62
2022/08/02 12:39:36;;;;;;;;;;;27.40;70.60;;;;;;5032954;28;20357;-62
2022/08/02 12:42:02;;;;;;;;;;;27.60;70.80;;;;;;5030828;28;19932;-62
2022/08/02 12:44:28;;;;;;;;;;;27.70;72.50;;;;;;5031910;28;19925;-62
2022/08/02 12:47:03;;;;;;;;;;;27.30;71.60;;;;;;5032786;28;20370;-62
2022/08/02 12:49:29;;;;;;;;;;;27.50;71.10;;;;;;5032717;28;20394;-62
2022/08/02 12:51:55;;;;;;;;;;;27.70;72.20;;;;;;5001404;28;20044;-62
2022/08/02 12:54:21;;;;;;;;;;;27.50;72.50;;;;;;5005820;28;20345;-61
2022/08/02 12:56:47;;;;;;;;;;;27.30;72.50;;;;;;5032852;28;20358;-62
2022/08/02 12:59:13;;;;;;;;;;;27.60;72.70;;;;;;5033401;28;19968;-62
2022/08/02 13:01:39;;;;;;;;;;;27.30;72.90;;;;;;5042154;28;19939;-62
2022/08/02 13:04:05;;;;;;;;;;;27.20;72.90;;;;;;5061690;28;20379;-62
2022/08/02 13:06:30;;;;;;;;;;;27.40;72.80;;;;;;5073571;28;19974;-62
2022/08/02 13:08:57;;;;;;;;;;;27.30;73.50;;;;;;5056297;28;19965;-62
2022/08/02 13:11:23;;;;;;;;;;;27.00;73.60;;;;;;5074585;28;20263;-62
2022/08/02 13:13:49;;;;;;;;;;;26.80;73.60;;;;;;5067173;28;19929;-63
2022/08/02 13:16:15;;;;;;;;;;;27.40;73.90;;;;;;5072656;28;20315;-62
2022/08/02 13:18:40;;;;;;;;;;;27.10;73.30;;;;;;5074455;28;19931;-62
2022/08/02 13:21:07;;;;;;;;;;;27.10;74.20;;;;;;5074377;28;20354;-62
2022/08/02 13:23:33;;;;;;;;;;;27.10;74.10;;;;;;5070536;28;19924;-62
2022/08/02 13:25:58;;;;;;;;;;;27.10;74.30;;;;;;5061157;28;19925;-62
2022/08/02 13:28:24;;;;;;;;;;;27.10;73.80;;;;;;5054279;28;19924;-63
2022/08/02 13:30:50;;;;;;;;;;;27.10;73.70;;;;;;5053918;28;19925;-63
2022/08/02 13:33:15;;;;;;;;;;;27.00;73.40;;;;;;5058876;28;19978;-62
2022/08/02 13:35:42;;;;;;;;;;;26.90;73.30;;;;;;5068639;28;19928;-62
2022/08/02 13:38:07;;;;;;;;;;;27.00;74.10;;;;;;5074194;28;19924;-63
2022/08/02 13:40:33;;;;;;;;;;;26.90;73.60;;;;;;5073297;28;19925;-62
2022/08/02 13:42:59;;;;;;;;;;;27.10;73.80;;;;;;5074013;28;19936;-62
2022/08/02 13:45:25;;;;;;;;;;;26.80;73.70;;;;;;5070500;28;19927;-62
2022/08/02 13:47:51;;;;;;;;;;;26.80;73.70;;;;;;5041346;28;19929;-62
2022/08/02 13:50:16;;;;;;;;;;;27.00;74.10;;;;;;5054062;28;19932;-62
2022/08/02 13:52:42;;;;;;;;;;;26.80;74.20;;;;;;5053572;28;20011;-62
2022/08/02 13:55:08;;;;;;;;;;;26.90;75.10;;;;;;5053666;28;19924;-62
2022/08/02 13:57:33;;;;;;;;;;;26.90;74.10;;;;;;5065763;28;19924;-63
2022/08/02 13:59:59;;;;;;;;;;;27.10;74.80;;;;;;5055671;28;19975;-62
2022/08/02 14:02:26;;;;;;;;;;;27.10;74.40;;;;;;5073614;28;19968;-62
2022/08/02 14:04:52;;;;;;;;;;;26.90;75.10;;;;;;5076143;28;20021;-65
2022/08/02 14:07:18;;;;;;;;;;;26.90;75.00;;;;;;5074709;28;19924;-64
2022/08/02 14:09:43;;;;;;;;;;;26.80;75.00;;;;;;5076187;28;19924;-62
2022/08/02 14:12:09;;;;;;;;;;;26.80;74.80;;;;;;5068424;28;19968;-63
2022/08/02 14:14:35;;;;;;;;;;;26.70;75.00;;;;;;5075625;28;20011;-62
2022/08/02 14:17:01;;;;;;;;;;;27.00;75.10;;;;;;5077490;28;19975;-61
2022/08/02 14:19:26;;;;;;;;;;;26.80;75.40;;;;;;5073035;28;19931;-61
2022/08/02 14:21:52;;;;;;;;;;;26.90;75.70;;;;;;5058265;28;19929;-62
2022/08/02 14:24:18;;;;;;;;;;;26.80;75.70;;;;;;5058778;28;19925;-61